Disclaimer

Please do not use the information listed here in-flight or in-navigation, as they are not provided to us by the airports but are provided by volunteers, so they might be outdated.

Search


Regions


Airport information page

No radio frequency information is available.

Airport informations:
Latitude: 21° 14' 28.37" S
Longitude: 175° 08' 58.72" W
Elevation: 126 feet - 38 meters
Operating hours: Remarks
Operating agency: Civil government, landing fees and diplomatic clearance may be required
Timezone: UTC+13
Fuel: Jet A1, without icing nhibitor.

100/130 octane gasoline, leaded, MIL-L-5572F (GREEN)

Runway information:
11/29 - 8795 x 147 feet< - >2681 x 45 meters
17/35 - 4951 x 195 feet< - >1509 x 59 meters

Recent METARs:
NFTF 141600Z 07004KT 9999 -RA FEW007 SCT016 OVC100 22/19 Q1011
NFTF 141700Z 07005KT 9999 FEW007 FEW016TCU OVC100 22/19 Q1010
NFTF 141700Z 07005KT 9999 FEW007 FEW016TCU OVC100 22/19 Q1010

Airport on the map: